createdAt,value
2023-02-16T00:01:36.594Z,34.88
2023-02-16T00:03:39.281Z,33.88
2023-02-16T00:05:43.540Z,29.88
2023-02-16T00:07:46.092Z,32.53
2023-02-16T00:09:48.613Z,29.17
2023-02-16T00:12:10.928Z,36.38
2023-02-16T00:14:15.027Z,33.80
2023-02-16T00:16:19.242Z,28.75
2023-02-16T00:18:22.877Z,31.35
2023-02-16T00:20:25.513Z,33.58
2023-02-16T00:22:29.587Z,32.00
2023-02-16T00:24:32.744Z,32.60
2023-02-16T00:26:36.228Z,32.35
2023-02-16T00:28:38.807Z,31.60
2023-02-16T00:30:41.442Z,34.17
2023-02-16T00:32:44.118Z,33.35
2023-02-16T00:34:46.676Z,36.67
2023-02-16T00:36:49.217Z,33.05
2023-02-16T00:38:53.164Z,34.88
2023-02-16T00:40:55.744Z,35.75
2023-02-16T00:42:58.791Z,32.90
2023-02-16T00:45:01.634Z,32.15
2023-02-16T00:47:15.818Z,32.63
2023-02-16T00:49:19.928Z,33.30
2023-02-16T00:51:26.156Z,35.67
2023-02-16T00:53:29.094Z,34.25
2023-02-16T00:55:35.273Z,31.52
2023-02-16T00:57:42.045Z,33.40
2023-02-16T00:59:44.943Z,35.10
2023-02-16T01:01:47.983Z,35.50
2023-02-16T01:03:50.707Z,38.83
2023-02-16T01:06:14.512Z,39.28
2023-02-16T01:08:35.146Z,34.25
2023-02-16T01:10:57.489Z,31.85
2023-02-16T01:13:01.494Z,36.85
2023-02-16T01:15:04.258Z,32.25
2023-02-16T01:17:06.813Z,34.05
2023-02-16T01:19:11.482Z,33.70
2023-02-16T01:21:14.060Z,34.92
2023-02-16T01:23:16.687Z,39.85
2023-02-16T01:25:19.371Z,34.55
2023-02-16T01:27:23.253Z,38.47
2023-02-16T01:29:25.870Z,35.03
2023-02-16T01:31:28.699Z,34.80
2023-02-16T01:33:31.355Z,28.92
2023-02-16T01:35:35.234Z,29.55
2023-02-16T01:37:37.973Z,25.00
2023-02-16T01:39:40.542Z,23.30
2023-02-16T01:41:55.473Z,28.48
2023-02-16T01:44:04.106Z,27.15
2023-02-16T01:46:11.858Z,36.70
2023-02-16T01:48:21.937Z,25.90
2023-02-16T01:50:26.945Z,26.77
2023-02-16T01:52:34.985Z,27.60
2023-02-16T01:54:44.043Z,24.02
2023-02-16T01:56:51.066Z,24.85
2023-02-16T01:58:57.479Z,24.23
2023-02-16T02:01:40.441Z,25.60
2023-02-16T02:04:00.808Z,25.52
2023-02-16T02:06:03.407Z,24.88
2023-02-16T02:08:15.900Z,25.80
2023-02-16T02:10:26.723Z,23.40
2023-02-16T02:12:35.801Z,28.45
2023-02-16T02:14:40.640Z,25.15
2023-02-16T02:16:54.578Z,25.83
2023-02-16T02:18:57.352Z,24.25
2023-02-16T02:21:34.825Z,23.77
2023-02-16T02:23:47.831Z,26.30
2023-02-16T02:26:44.779Z,27.40
2023-02-16T02:28:59.244Z,23.70
2023-02-16T02:31:10.922Z,26.15
2023-02-16T02:33:40.585Z,25.17
2023-02-16T02:35:49.952Z,24.38
2023-02-16T02:37:58.821Z,24.30
2023-02-16T02:40:09.500Z,24.25
2023-02-16T02:42:19.332Z,24.45
2023-02-16T02:44:26.982Z,26.88
2023-02-16T02:46:33.297Z,26.63
2023-02-16T02:48:36.356Z,23.73
2023-02-16T02:51:06.711Z,19.80
2023-02-16T02:53:13.395Z,28.23
2023-02-16T02:55:34.051Z,27.67
2023-02-16T02:58:01.169Z,24.73
2023-02-16T03:00:26.672Z,24.02
2023-02-16T03:02:31.743Z,21.30
2023-02-16T03:04:34.787Z,27.20
2023-02-16T03:06:41.721Z,22.67
2023-02-16T03:08:47.077Z,21.25
2023-02-16T03:11:10.870Z,24.73
2023-02-16T03:13:18.331Z,23.63
2023-02-16T03:15:25.470Z,23.20
2023-02-16T03:17:52.223Z,27.10
2023-02-16T03:20:16.821Z,23.48
2023-02-16T03:22:36.800Z,24.25
2023-02-16T03:24:57.012Z,23.52
2023-02-16T03:27:17.505Z,20.65
2023-02-16T03:29:22.523Z,24.38
2023-02-16T03:31:31.206Z,26.40
2023-02-16T03:33:34.441Z,24.38
2023-02-16T03:35:37.494Z,27.25
2023-02-16T03:37:40.637Z,29.48
2023-02-16T03:39:57.715Z,26.40
2023-02-16T03:42:00.286Z,31.70
2023-02-16T03:44:02.822Z,30.45
2023-02-16T03:46:05.678Z,34.30
2023-02-16T03:48:10.064Z,34.13
2023-02-16T03:50:13.252Z,29.33
2023-02-16T03:52:15.831Z,33.35
2023-02-16T03:54:18.413Z,33.78
2023-02-16T03:56:21.003Z,31.05
2023-02-16T03:58:25.446Z,30.25
2023-02-16T04:00:28.156Z,28.90
2023-02-16T04:02:30.782Z,34.85
2023-02-16T04:04:34.731Z,32.53
2023-02-16T04:06:37.382Z,27.83
2023-02-16T04:08:40.018Z,26.67
2023-02-16T04:10:42.589Z,29.48
2023-02-16T04:12:44.744Z,33.90
2023-02-16T04:14:47.307Z,26.50
2023-02-16T04:16:50.000Z,23.83
2023-02-16T04:18:52.559Z,23.08
2023-02-16T04:20:56.455Z,29.05
2023-02-16T04:22:59.448Z,30.13
2023-02-16T04:25:02.030Z,28.52
2023-02-16T04:27:04.678Z,25.20
2023-02-16T04:29:07.234Z,23.83
2023-02-16T04:31:09.902Z,25.10
2023-02-16T04:33:12.568Z,24.33
2023-02-16T04:35:15.167Z,23.75
2023-02-16T04:37:19.050Z,29.67
2023-02-16T04:39:21.955Z,24.60
2023-02-16T04:41:26.216Z,29.33
2023-02-16T04:43:28.805Z,28.40
2023-02-16T04:45:31.542Z,27.20
2023-02-16T04:47:34.102Z,21.92
2023-02-16T04:49:36.693Z,21.98
2023-02-16T04:51:39.868Z,26.65
2023-02-16T04:53:43.917Z,23.60
2023-02-16T04:55:47.597Z,26.15
2023-02-16T04:57:50.223Z,26.38
2023-02-16T04:59:52.809Z,24.23
2023-02-16T05:01:55.391Z,26.65
2023-02-16T05:03:58.207Z,22.85
2023-02-16T05:06:01.190Z,23.40
2023-02-16T05:08:04.273Z,24.55
2023-02-16T05:10:09.376Z,27.60
2023-02-16T05:12:29.874Z,24.92
2023-02-16T05:14:45.449Z,23.35
2023-02-16T05:16:48.094Z,27.52
2023-02-16T05:18:50.654Z,27.48
2023-02-16T05:21:10.983Z,29.48
2023-02-16T05:23:14.092Z,21.98
2023-02-16T05:25:18.058Z,22.90
2023-02-16T05:27:22.410Z,24.88
2023-02-16T05:29:25.041Z,24.55
2023-02-16T05:31:28.559Z,23.55
2023-02-16T05:33:31.210Z,24.75
2023-02-16T05:35:34.828Z,22.67
2023-02-16T05:37:37.366Z,20.45
2023-02-16T05:39:39.990Z,25.20
2023-02-16T05:41:43.908Z,23.05
2023-02-16T05:43:49.502Z,24.73
2023-02-16T05:45:52.159Z,25.08
2023-02-16T05:47:54.775Z,22.02
2023-02-16T05:49:57.375Z,22.55
2023-02-16T05:51:59.954Z,23.45
2023-02-16T05:54:02.568Z,24.35
2023-02-16T05:56:07.376Z,25.08
2023-02-16T05:58:11.428Z,24.77
2023-02-16T06:00:15.231Z,27.52
2023-02-16T06:02:17.773Z,24.30
2023-02-16T06:04:21.974Z,20.40
2023-02-16T06:06:24.538Z,24.20
2023-02-16T06:08:27.702Z,26.23
2023-02-16T06:10:30.279Z,22.35
2023-02-16T06:12:34.499Z,21.52
2023-02-16T06:14:38.380Z,25.08
2023-02-16T06:16:43.041Z,27.23
2023-02-16T06:18:45.606Z,27.42
2023-02-16T06:20:48.725Z,25.13
2023-02-16T06:22:51.258Z,21.63
2023-02-16T06:24:53.775Z,22.00
2023-02-16T06:26:56.325Z,22.50
2023-02-16T06:28:59.071Z,24.35
2023-02-16T06:31:03.450Z,24.23
2023-02-16T06:33:06.333Z,22.40
2023-02-16T06:35:09.947Z,24.75
2023-02-16T06:37:12.615Z,23.88
2023-02-16T06:39:15.214Z,21.85
2023-02-16T06:41:31.196Z,27.88
2023-02-16T06:43:34.104Z,21.48
2023-02-16T06:45:36.682Z,26.98
2023-02-16T06:47:40.701Z,21.35
2023-02-16T06:49:43.272Z,20.77
2023-02-16T06:51:46.749Z,22.60
2023-02-16T06:53:49.456Z,21.98
2023-02-16T06:55:52.403Z,21.50
2023-02-16T06:57:54.998Z,25.02
2023-02-16T06:59:57.548Z,22.05
2023-02-16T07:02:00.105Z,24.40
2023-02-16T07:04:04.185Z,29.27
2023-02-16T07:06:07.241Z,22.77
2023-02-16T07:08:09.778Z,26.75
2023-02-16T07:10:12.658Z,25.40
2023-02-16T07:12:15.205Z,23.42
2023-02-16T07:14:17.784Z,22.63
2023-02-16T07:16:20.384Z,22.98
2023-02-16T07:18:22.915Z,25.00
2023-02-16T07:20:27.850Z,21.65
2023-02-16T07:22:30.694Z,23.55
2023-02-16T07:24:33.301Z,29.40
2023-02-16T07:26:38.611Z,26.13
2023-02-16T07:28:41.160Z,26.80
2023-02-16T07:30:43.793Z,24.52
2023-02-16T07:32:46.367Z,27.00
2023-02-16T07:34:49.529Z,25.45
2023-02-16T07:36:53.500Z,24.23
2023-02-16T07:38:56.094Z,29.88
2023-02-16T07:40:58.734Z,23.00
2023-02-16T07:43:02.132Z,27.08
2023-02-16T07:45:05.191Z,27.65
2023-02-16T07:47:07.738Z,30.10
2023-02-16T07:49:10.327Z,24.60
2023-02-16T07:51:12.890Z,25.55
2023-02-16T07:53:16.856Z,27.42
2023-02-16T07:55:19.562Z,26.30
2023-02-16T07:57:22.271Z,26.98
2023-02-16T07:59:25.054Z,26.48
2023-02-16T08:01:28.220Z,22.20
2023-02-16T08:03:30.813Z,24.90
2023-02-16T08:05:35.099Z,23.23
2023-02-16T08:07:37.704Z,30.52
2023-02-16T08:09:41.635Z,24.38
2023-02-16T08:11:44.524Z,33.33
2023-02-16T08:13:47.510Z,26.90
2023-02-16T08:15:50.146Z,26.00
2023-02-16T08:17:52.705Z,22.40
2023-02-16T08:19:55.306Z,26.23
2023-02-16T08:22:00.586Z,25.25
2023-02-16T08:24:05.221Z,26.73
2023-02-16T08:26:11.172Z,29.52
2023-02-16T08:28:14.769Z,25.48
2023-02-16T08:30:18.309Z,26.45
2023-02-16T08:32:21.038Z,23.23
2023-02-16T08:34:25.042Z,23.13
2023-02-16T08:36:32.294Z,27.70
2023-02-16T08:38:34.844Z,27.45
2023-02-16T08:40:37.400Z,28.23
2023-02-16T08:42:41.850Z,25.92
2023-02-16T08:44:44.677Z,27.83
2023-02-16T08:46:48.539Z,26.25
2023-02-16T08:48:51.198Z,28.23
2023-02-16T08:50:54.283Z,27.02
2023-02-16T08:52:58.251Z,26.98
2023-02-16T08:55:00.868Z,27.42
2023-02-16T08:57:03.918Z,31.75
2023-02-16T08:59:07.846Z,24.35
2023-02-16T09:01:12.763Z,26.17
2023-02-16T09:03:16.429Z,26.42
2023-02-16T09:05:19.239Z,27.48
2023-02-16T09:07:22.264Z,22.30
2023-02-16T09:09:26.374Z,25.23
2023-02-16T09:11:29.051Z,28.15
2023-02-16T09:13:31.659Z,23.60
2023-02-16T09:15:36.995Z,24.92
2023-02-16T09:17:40.894Z,22.67
2023-02-16T09:19:44.593Z,22.00
2023-02-16T09:21:48.569Z,23.48
2023-02-16T09:23:51.820Z,24.80
2023-02-16T09:25:54.403Z,26.13
2023-02-16T09:27:57.808Z,24.58
2023-02-16T09:30:00.395Z,24.48
2023-02-16T09:32:04.411Z,29.95
2023-02-16T09:34:09.894Z,19.83
2023-02-16T09:36:14.799Z,26.15
2023-02-16T09:38:17.763Z,25.80
2023-02-16T09:40:20.876Z,25.75
2023-02-16T09:42:32.970Z,21.20
2023-02-16T09:44:50.497Z,26.48
2023-02-16T09:46:56.163Z,24.58
2023-02-16T09:49:03.719Z,20.85
2023-02-16T09:51:08.695Z,22.48
2023-02-16T09:53:22.463Z,26.02
2023-02-16T09:55:30.525Z,29.27
2023-02-16T09:57:43.188Z,26.50
2023-02-16T09:59:52.426Z,23.23
2023-02-16T10:02:01.709Z,24.02
2023-02-16T10:04:23.970Z,24.70
2023-02-16T10:06:37.468Z,21.30
2023-02-16T10:08:43.068Z,26.80
2023-02-16T10:10:51.786Z,24.73
2023-02-16T10:12:57.946Z,23.95
2023-02-16T10:15:07.545Z,21.25
2023-02-16T10:17:18.169Z,22.80
2023-02-16T10:19:26.118Z,20.42
2023-02-16T10:21:31.586Z,20.48
2023-02-16T10:23:44.850Z,20.33
2023-02-16T10:25:54.783Z,29.88
2023-02-16T10:28:08.217Z,25.95
2023-02-16T10:30:15.247Z,22.63
2023-02-16T10:32:29.231Z,19.88
2023-02-16T10:34:45.332Z,19.45
2023-02-16T10:37:02.025Z,25.20
2023-02-16T10:39:10.531Z,21.73
2023-02-16T10:41:18.637Z,21.88
2023-02-16T10:43:34.946Z,21.20
2023-02-16T10:45:42.995Z,24.67
2023-02-16T10:47:47.121Z,22.92
2023-02-16T10:49:51.486Z,25.85
2023-02-16T10:51:56.424Z,27.73
2023-02-16T10:54:02.891Z,20.67
2023-02-16T10:56:27.666Z,24.40
2023-02-16T10:58:39.921Z,20.33
2023-02-16T11:00:51.638Z,19.10
2023-02-16T11:02:54.996Z,22.13
2023-02-16T11:05:00.715Z,27.45
2023-02-16T11:07:05.999Z,21.20
2023-02-16T11:09:16.151Z,25.65
2023-02-16T11:11:22.758Z,20.42
2023-02-16T11:13:29.214Z,18.80
2023-02-16T11:15:32.702Z,17.10
2023-02-16T11:17:52.506Z,18.85
2023-02-16T11:20:01.602Z,13.75
2023-02-16T11:22:06.001Z,14.68
2023-02-16T11:24:13.038Z,17.50
2023-02-16T11:26:25.002Z,18.77
2023-02-16T11:28:32.350Z,13.05
2023-02-16T11:30:36.991Z,10.45
2023-02-16T11:32:39.579Z,11.90
2023-02-16T11:34:46.916Z,9.98
2023-02-16T11:36:50.093Z,11.02
2023-02-16T11:39:06.910Z,16.48
2023-02-16T11:41:09.562Z,10.77
2023-02-16T11:43:18.945Z,11.27
2023-02-16T11:45:30.935Z,9.43
2023-02-16T11:47:37.667Z,12.73
2023-02-16T11:49:42.392Z,9.32
2023-02-16T11:51:44.943Z,16.58
2023-02-16T11:54:00.857Z,8.35
2023-02-16T11:56:24.239Z,12.23
2023-02-16T11:58:29.195Z,10.13
2023-02-16T12:00:31.942Z,12.95
2023-02-16T12:02:50.686Z,10.15
2023-02-16T12:05:07.477Z,7.63
2023-02-16T12:07:20.241Z,10.25
2023-02-16T12:09:34.305Z,12.07
2023-02-16T12:11:52.202Z,8.82
2023-02-16T12:14:09.042Z,12.05
2023-02-16T12:16:25.188Z,8.18
2023-02-16T12:18:34.207Z,10.20
2023-02-16T12:20:46.664Z,10.00
2023-02-16T12:22:50.887Z,11.25
2023-02-16T12:25:06.093Z,7.60
2023-02-16T12:27:19.511Z,11.07
2023-02-16T12:29:38.402Z,8.20
2023-02-16T12:32:01.119Z,7.43
2023-02-16T12:34:15.851Z,7.45
2023-02-16T12:36:40.982Z,5.53
2023-02-16T12:38:53.720Z,6.50
2023-02-16T12:41:05.481Z,7.63
2023-02-16T12:43:26.457Z,6.68
2023-02-16T12:45:34.212Z,8.05
2023-02-16T12:47:42.455Z,9.02
2023-02-16T12:49:52.551Z,7.35
2023-02-16T12:52:04.319Z,7.78
2023-02-16T12:54:14.383Z,14.40
2023-02-16T12:56:22.001Z,6.90
2023-02-16T12:58:31.112Z,8.05
2023-02-16T13:00:43.663Z,10.32
2023-02-16T13:02:51.141Z,6.07
2023-02-16T13:05:03.056Z,6.90
2023-02-16T13:07:17.845Z,9.25
2023-02-16T13:09:33.978Z,6.63
2023-02-16T13:11:41.159Z,7.70
2023-02-16T13:13:47.624Z,6.93
2023-02-16T13:15:53.747Z,8.27
2023-02-16T13:17:58.852Z,7.28
2023-02-16T13:20:03.380Z,9.68
2023-02-16T13:22:36.062Z,6.05
2023-02-16T13:24:50.484Z,6.65
2023-02-16T13:27:07.192Z,7.70
2023-02-16T13:29:52.388Z,6.60
2023-02-16T13:32:06.963Z,5.85
2023-02-16T13:34:48.794Z,7.35
2023-02-16T13:37:06.154Z,9.70
2023-02-16T13:39:25.372Z,8.82
2023-02-16T13:41:51.971Z,8.55
2023-02-16T13:43:58.813Z,12.43
2023-02-16T13:46:08.229Z,8.07
2023-02-16T13:48:17.176Z,12.23
2023-02-16T13:50:29.937Z,9.57
2023-02-16T13:52:35.552Z,13.60
2023-02-16T13:54:43.562Z,8.77
2023-02-16T13:56:46.442Z,9.85
2023-02-16T13:58:49.588Z,6.70
2023-02-16T14:00:53.014Z,7.50
2023-02-16T14:02:59.296Z,8.65
2023-02-16T14:05:10.499Z,13.68
2023-02-16T14:07:33.324Z,7.60
2023-02-16T14:09:49.645Z,10.90
2023-02-16T14:12:03.768Z,6.57
2023-02-16T14:14:30.101Z,7.90
2023-02-16T14:16:34.793Z,7.43
2023-02-16T14:18:43.543Z,6.13
2023-02-16T14:20:46.133Z,7.35
2023-02-16T14:22:51.999Z,9.68
2023-02-16T14:24:56.970Z,6.55
2023-02-16T14:27:01.454Z,10.07
2023-02-16T14:29:12.524Z,5.13
2023-02-16T14:31:19.219Z,6.43
2023-02-16T14:33:26.791Z,10.57
2023-02-16T14:35:34.890Z,8.20
2023-02-16T14:37:41.537Z,7.22
2023-02-16T14:40:06.419Z,9.35
2023-02-16T14:42:10.078Z,9.48
2023-02-16T14:44:38.333Z,6.55
2023-02-16T14:46:49.355Z,7.25
2023-02-16T14:49:13.923Z,8.88
2023-02-16T14:51:48.071Z,8.25
2023-02-16T14:54:22.477Z,8.63
2023-02-16T14:56:39.267Z,7.85
2023-02-16T14:58:52.499Z,10.85
2023-02-16T15:01:03.970Z,7.78
2023-02-16T15:03:18.029Z,9.27
2023-02-16T15:05:22.936Z,10.43
2023-02-16T15:07:29.160Z,8.43
2023-02-16T15:09:34.316Z,8.77
2023-02-16T15:12:00.241Z,12.80
2023-02-16T15:14:09.490Z,12.55
2023-02-16T15:16:15.342Z,6.57
2023-02-16T15:18:21.442Z,7.85
2023-02-16T15:20:29.419Z,7.30
2023-02-16T15:22:33.436Z,7.80
2023-02-16T15:24:35.974Z,8.57
2023-02-16T15:26:41.434Z,12.93
2023-02-16T15:28:53.267Z,11.70
2023-02-16T15:33:02.365Z,7.75
2023-02-16T15:35:13.757Z,8.85
2023-02-16T15:37:32.536Z,5.93
2023-02-16T15:39:49.788Z,8.38
2023-02-16T15:42:10.892Z,7.78
2023-02-16T15:44:29.847Z,10.52
2023-02-16T15:46:34.828Z,9.13
2023-02-16T15:48:38.662Z,8.52
2023-02-16T15:50:41.395Z,10.90
2023-02-16T15:52:44.056Z,8.55
2023-02-16T15:54:50.247Z,9.50
2023-02-16T15:56:55.260Z,14.38
2023-02-16T15:59:00.858Z,15.63
2023-02-16T16:01:03.767Z,24.08
2023-02-16T16:03:10.559Z,18.25
2023-02-16T16:05:25.039Z,18.27
2023-02-16T16:07:30.906Z,18.92
2023-02-16T16:09:35.456Z,21.15
2023-02-16T16:11:39.485Z,18.10
2023-02-16T16:13:42.741Z,13.95
2023-02-16T16:15:49.420Z,9.85
2023-02-16T16:17:53.842Z,13.95
2023-02-16T16:19:57.339Z,12.95
2023-02-16T16:22:00.208Z,12.50
2023-02-16T16:24:05.090Z,13.13
2023-02-16T16:26:18.643Z,15.45
2023-02-16T16:28:37.894Z,12.32
2023-02-16T16:30:45.147Z,12.38
2023-02-16T16:32:48.116Z,9.07
2023-02-16T16:34:50.823Z,13.10
2023-02-16T16:36:56.333Z,16.85
2023-02-16T16:39:27.965Z,22.95
2023-02-16T16:41:30.894Z,31.67
2023-02-16T16:43:37.844Z,33.58
2023-02-16T16:45:42.874Z,29.50
2023-02-16T16:47:51.965Z,29.27
2023-02-16T16:49:57.275Z,23.80
2023-02-16T16:51:59.825Z,18.90
2023-02-16T16:54:04.105Z,19.13
2023-02-16T16:56:11.044Z,19.67
2023-02-16T16:58:14.219Z,22.52
2023-02-16T17:00:19.374Z,20.40
2023-02-16T17:02:21.896Z,12.90
2023-02-16T17:04:24.568Z,12.32
2023-02-16T17:06:28.112Z,20.50
2023-02-16T17:08:30.687Z,14.48
2023-02-16T17:10:33.404Z,12.13
2023-02-16T17:12:36.400Z,17.63
2023-02-16T17:14:39.136Z,15.98
2023-02-16T17:16:45.037Z,17.90
2023-02-16T17:18:47.644Z,22.80
2023-02-16T17:20:51.147Z,13.13
2023-02-16T17:22:53.723Z,14.77
2023-02-16T17:24:56.234Z,18.33
2023-02-16T17:26:58.809Z,16.15
2023-02-16T17:29:04.850Z,17.50
2023-02-16T17:31:09.681Z,17.42
2023-02-16T17:33:13.761Z,16.92
2023-02-16T17:35:16.410Z,18.20
2023-02-16T17:37:19.693Z,18.80
2023-02-16T17:39:22.298Z,24.25
2023-02-16T17:41:27.435Z,25.30
2023-02-16T17:43:30.135Z,19.45
2023-02-16T17:45:32.768Z,21.88
2023-02-16T17:47:35.618Z,19.98
2023-02-16T17:49:40.191Z,19.73
2023-02-16T17:51:43.157Z,22.15
2023-02-16T17:53:45.970Z,22.10
2023-02-16T17:55:50.359Z,19.63
2023-02-16T17:57:52.902Z,25.45
2023-02-16T17:59:55.627Z,20.50
2023-02-16T18:01:58.203Z,21.58
2023-02-16T18:04:00.816Z,26.95
2023-02-16T18:06:05.318Z,28.52
2023-02-16T18:08:08.369Z,46.05
2023-02-16T18:10:17.656Z,39.72
2023-02-16T18:12:20.246Z,40.10
2023-02-16T18:14:22.775Z,44.72
2023-02-16T18:16:27.906Z,51.83
2023-02-16T18:18:32.861Z,41.70
2023-02-16T18:20:35.734Z,44.40
2023-02-16T18:22:39.598Z,48.13
2023-02-16T18:24:44.294Z,37.67
2023-02-16T18:26:46.885Z,28.15
2023-02-16T18:28:51.662Z,29.98
2023-02-16T18:30:54.585Z,32.22
2023-02-16T18:32:57.209Z,47.80
2023-02-16T18:34:59.836Z,41.50
2023-02-16T18:37:02.379Z,47.95
2023-02-16T18:39:07.364Z,41.05
2023-02-16T18:41:10.338Z,30.05
2023-02-16T18:43:13.610Z,35.90
2023-02-16T18:45:16.179Z,42.30
2023-02-16T18:47:19.125Z,36.28
2023-02-16T18:49:21.651Z,53.38
2023-02-16T18:51:28.820Z,44.97
2023-02-16T18:53:31.610Z,42.65
2023-02-16T18:55:35.770Z,35.55
2023-02-16T18:57:38.632Z,46.28
2023-02-16T18:59:41.194Z,50.25
2023-02-16T19:01:43.809Z,56.83
2023-02-16T19:03:46.398Z,77.68
2023-02-16T19:05:49.005Z,84.20
2023-02-16T19:07:52.123Z,84.15
2023-02-16T19:09:54.684Z,78.15
2023-02-16T19:11:58.518Z,47.42
2023-02-16T19:14:01.106Z,53.28
2023-02-16T19:16:03.996Z,48.08
2023-02-16T19:18:06.890Z,34.85
2023-02-16T19:20:12.140Z,28.95
2023-02-16T19:22:14.702Z,44.88
2023-02-16T19:24:17.290Z,28.42
2023-02-16T19:26:19.931Z,29.77
2023-02-16T19:28:23.924Z,36.28
2023-02-16T19:30:29.437Z,24.55
2023-02-16T19:32:32.118Z,29.27
2023-02-16T19:34:36.197Z,36.03
2023-02-16T19:36:38.711Z,30.08
2023-02-16T19:38:41.749Z,19.63
2023-02-16T19:40:44.303Z,32.58
2023-02-16T19:42:47.984Z,29.50
2023-02-16T19:44:52.187Z,27.23
2023-02-16T19:46:54.706Z,30.60
2023-02-16T19:48:58.646Z,31.90
2023-02-16T19:51:02.606Z,33.30
2023-02-16T19:53:05.148Z,25.48
2023-02-16T19:55:10.064Z,21.92
2023-02-16T19:57:13.781Z,34.22
2023-02-16T19:59:16.531Z,25.35
2023-02-16T20:01:23.097Z,26.90
2023-02-16T20:03:26.085Z,28.13
2023-02-16T20:05:29.179Z,26.08
2023-02-16T20:07:31.733Z,26.73
2023-02-16T20:09:34.390Z,26.35
2023-02-16T20:11:39.651Z,31.48
2023-02-16T20:13:42.417Z,32.55
2023-02-16T20:15:45.057Z,28.63
2023-02-16T20:17:49.076Z,33.50
2023-02-16T20:19:51.648Z,25.70
2023-02-16T20:21:54.192Z,27.38
2023-02-16T20:23:58.764Z,26.35
2023-02-16T20:26:01.717Z,27.98
2023-02-16T20:28:04.280Z,22.77
2023-02-16T20:30:08.546Z,24.83
2023-02-16T20:32:11.280Z,27.27
2023-02-16T20:34:15.267Z,26.23
2023-02-16T20:36:18.217Z,29.75
2023-02-16T20:38:21.115Z,33.10
2023-02-16T20:40:24.846Z,34.05
2023-02-16T20:42:27.534Z,32.63
2023-02-16T20:44:30.155Z,30.35
2023-02-16T20:46:32.805Z,26.30
2023-02-16T20:48:35.926Z,26.27
2023-02-16T20:50:39.913Z,27.27
2023-02-16T20:52:43.139Z,30.40
2023-02-16T20:54:45.670Z,26.83
2023-02-16T20:56:48.217Z,25.73
2023-02-16T20:58:53.355Z,26.65
2023-02-16T21:00:56.826Z,28.70
2023-02-16T21:02:59.422Z,30.77
2023-02-16T21:05:01.966Z,30.00
2023-02-16T21:07:05.930Z,20.70
2023-02-16T21:09:09.714Z,24.77
2023-02-16T21:11:16.051Z,23.00
2023-02-16T21:13:18.627Z,32.03
2023-02-16T21:15:21.257Z,28.70
2023-02-16T21:17:23.884Z,25.75
2023-02-16T21:19:26.414Z,32.25
2023-02-16T21:21:29.000Z,25.85
2023-02-16T21:23:33.033Z,30.35
2023-02-16T21:25:36.057Z,21.15
2023-02-16T21:27:38.596Z,24.60
2023-02-16T21:29:41.143Z,22.40
2023-02-16T21:31:43.783Z,20.98
2023-02-16T21:33:46.623Z,16.92
2023-02-16T21:35:49.210Z,17.50
2023-02-16T21:37:51.836Z,16.83
2023-02-16T21:40:13.350Z,14.88
2023-02-16T21:42:15.928Z,15.98
2023-02-16T21:44:19.040Z,17.48
2023-02-16T21:46:22.244Z,19.58
2023-02-16T21:48:42.570Z,13.77
2023-02-16T21:50:45.157Z,11.90
2023-02-16T21:52:47.699Z,15.75
2023-02-16T21:55:07.991Z,15.40
2023-02-16T21:57:11.931Z,14.48
2023-02-16T21:59:16.883Z,13.52
2023-02-16T22:01:24.694Z,12.50
2023-02-16T22:03:27.474Z,10.90
2023-02-16T22:05:30.054Z,11.75
2023-02-16T22:07:34.150Z,13.00
2023-02-16T22:09:36.711Z,13.95
2023-02-16T22:11:39.939Z,12.38
2023-02-16T22:13:43.849Z,15.68
2023-02-16T22:15:46.408Z,13.45
2023-02-16T22:17:50.112Z,12.38
2023-02-16T22:19:53.047Z,17.33
2023-02-16T22:21:55.596Z,15.02
2023-02-16T22:24:00.668Z,12.52
2023-02-16T22:26:04.126Z,14.23
2023-02-16T22:28:06.960Z,13.73
2023-02-16T22:30:11.713Z,15.15
2023-02-16T22:32:14.763Z,15.07
2023-02-16T22:34:19.206Z,14.13
2023-02-16T22:36:21.757Z,13.00
2023-02-16T22:38:24.313Z,11.30
2023-02-16T22:40:26.861Z,11.90
2023-02-16T22:42:30.241Z,10.15
2023-02-16T22:44:32.831Z,16.60
2023-02-16T22:46:36.837Z,12.00
2023-02-16T22:48:39.558Z,11.05
2023-02-16T22:50:42.120Z,17.50
2023-02-16T22:52:44.723Z,10.93
2023-02-16T22:54:47.286Z,8.68
2023-02-16T22:56:49.914Z,7.97
2023-02-16T22:58:52.436Z,8.82
2023-02-16T23:00:55.797Z,12.18
2023-02-16T23:02:59.779Z,9.35
2023-02-16T23:05:02.375Z,8.52
2023-02-16T23:07:05.004Z,9.70
2023-02-16T23:09:10.093Z,9.20
2023-02-16T23:11:13.518Z,7.82
2023-02-16T23:13:16.073Z,9.02
2023-02-16T23:15:18.703Z,13.55
2023-02-16T23:17:21.282Z,14.25
2023-02-16T23:19:27.373Z,7.65
2023-02-16T23:21:32.033Z,8.85
2023-02-16T23:23:34.757Z,9.40
2023-02-16T23:25:36.463Z,10.02
2023-02-16T23:29:41.511Z,10.68
2023-02-16T23:31:46.758Z,8.30
2023-02-16T23:33:50.461Z,6.47
2023-02-16T23:35:55.806Z,11.75
2023-02-16T23:37:59.866Z,8.40
2023-02-16T23:40:02.495Z,11.70
2023-02-16T23:42:05.435Z,10.88
2023-02-16T23:44:09.377Z,9.35
2023-02-16T23:46:12.866Z,10.82
2023-02-16T23:48:15.561Z,13.07
2023-02-16T23:50:18.414Z,8.52
2023-02-16T23:52:22.367Z,9.93
2023-02-16T23:54:24.949Z,9.90
2023-02-16T23:56:29.484Z,12.80
2023-02-16T23:58:34.039Z,11.13
